sensor_id;sensor_type;location;lat;lon;timestamp;temperature;humidity
5792;DHT22;2922;53.482;10.006;2023-08-06T00:02:20;16.90;99.90
5792;DHT22;2922;53.482;10.006;2023-08-06T00:04:45;16.80;99.90
5792;DHT22;2922;53.482;10.006;2023-08-06T00:07:11;16.80;99.90
5792;DHT22;2922;53.482;10.006;2023-08-06T00:09:37;16.80;99.90
5792;DHT22;2922;53.482;10.006;2023-08-06T00:12:02;16.80;99.90
5792;DHT22;2922;53.482;10.006;2023-08-06T00:14:28;16.80;99.90
5792;DHT22;2922;53.482;10.006;2023-08-06T00:16:53;16.80;99.90
5792;DHT22;2922;53.482;10.006;2023-08-06T00:19:19;16.80;99.90
5792;DHT22;2922;53.482;10.006;2023-08-06T00:21:45;16.70;99.90
5792;DHT22;2922;53.482;10.006;2023-08-06T00:24:10;16.60;99.90
5792;DHT22;2922;53.482;10.006;2023-08-06T00:26:36;16.60;99.90
5792;DHT22;2922;53.482;10.006;2023-08-06T00:29:01;16.60;99.90
5792;DHT22;2922;53.482;10.006;2023-08-06T00:31:27;16.60;99.90
5792;DHT22;2922;53.482;10.006;2023-08-06T00:33:52;16.60;99.90
5792;DHT22;2922;53.482;10.006;2023-08-06T00:36:18;16.60;99.90
5792;DHT22;2922;53.482;10.006;2023-08-06T00:38:43;16.60;99.90
5792;DHT22;2922;53.482;10.006;2023-08-06T00:41:09;16.60;99.90
5792;DHT22;2922;53.482;10.006;2023-08-06T00:43:34;16.50;99.90
5792;DHT22;2922;53.482;10.006;2023-08-06T00:46:00;16.50;99.90
5792;DHT22;2922;53.482;10.006;2023-08-06T00:48:26;16.50;99.90
5792;DHT22;2922;53.482;10.006;2023-08-06T00:50:52;16.50;99.90
5792;DHT22;2922;53.482;10.006;2023-08-06T00:53:18;16.50;99.90
5792;DHT22;2922;53.482;10.006;2023-08-06T00:55:44;16.50;99.90
5792;DHT22;2922;53.482;10.006;2023-08-06T00:58:10;16.50;99.90
5792;DHT22;2922;53.482;10.006;2023-08-06T01:00:37;16.40;99.90
5792;DHT22;2922;53.482;10.006;2023-08-06T01:03:03;16.40;99.90
5792;DHT22;2922;53.482;10.006;2023-08-06T01:05:29;16.40;99.90
5792;DHT22;2922;53.482;10.006;2023-08-06T01:11:20;16.40;99.90
5792;DHT22;2922;53.482;10.006;2023-08-06T01:13:58;16.40;99.90
5792;DHT22;2922;53.482;10.006;2023-08-06T01:16:24;16.40;99.90
5792;DHT22;2922;53.482;10.006;2023-08-06T01:18:50;16.40;99.90
5792;DHT22;2922;53.482;10.006;2023-08-06T01:21:16;16.30;99.90
5792;DHT22;2922;53.482;10.006;2023-08-06T01:23:42;16.30;99.90
5792;DHT22;2922;53.482;10.006;2023-08-06T01:31:24;16.40;99.90
5792;DHT22;2922;53.482;10.006;2023-08-06T01:33:53;16.40;99.90
5792;DHT22;2922;53.482;10.006;2023-08-06T01:36:19;16.40;99.90
5792;DHT22;2922;53.482;10.006;2023-08-06T01:38:45;16.40;99.90
5792;DHT22;2922;53.482;10.006;2023-08-06T01:41:11;16.40;99.90
5792;DHT22;2922;53.482;10.006;2023-08-06T01:43:37;16.40;99.90
5792;DHT22;2922;53.482;10.006;2023-08-06T01:46:02;16.40;99.90
5792;DHT22;2922;53.482;10.006;2023-08-06T01:48:28;16.40;99.90
5792;DHT22;2922;53.482;10.006;2023-08-06T01:50:53;16.40;99.90
5792;DHT22;2922;53.482;10.006;2023-08-06T01:53:19;16.40;99.90
5792;DHT22;2922;53.482;10.006;2023-08-06T01:55:48;16.40;99.90
5792;DHT22;2922;53.482;10.006;2023-08-06T01:58:14;16.40;99.90
5792;DHT22;2922;53.482;10.006;2023-08-06T02:00:40;16.40;99.90
5792;DHT22;2922;53.482;10.006;2023-08-06T02:03:06;16.40;99.90
5792;DHT22;2922;53.482;10.006;2023-08-06T02:05:31;16.50;99.90
5792;DHT22;2922;53.482;10.006;2023-08-06T02:07:57;16.40;99.90
5792;DHT22;2922;53.482;10.006;2023-08-06T02:10:23;16.40;99.90
5792;DHT22;2922;53.482;10.006;2023-08-06T02:12:48;16.40;99.90
5792;DHT22;2922;53.482;10.006;2023-08-06T02:15:14;16.40;99.90
5792;DHT22;2922;53.482;10.006;2023-08-06T02:17:39;16.40;99.90
5792;DHT22;2922;53.482;10.006;2023-08-06T02:20:05;16.40;99.90
5792;DHT22;2922;53.482;10.006;2023-08-06T02:22:31;16.40;99.90
5792;DHT22;2922;53.482;10.006;2023-08-06T02:24:57;16.40;99.90
5792;DHT22;2922;53.482;10.006;2023-08-06T02:27:22;16.30;99.90
5792;DHT22;2922;53.482;10.006;2023-08-06T02:29:48;16.40;99.90
5792;DHT22;2922;53.482;10.006;2023-08-06T02:32:13;16.30;99.90
5792;DHT22;2922;53.482;10.006;2023-08-06T02:34:39;16.40;99.90
5792;DHT22;2922;53.482;10.006;2023-08-06T02:37:05;16.30;99.90
5792;DHT22;2922;53.482;10.006;2023-08-06T02:39:30;16.30;99.90
5792;DHT22;2922;53.482;10.006;2023-08-06T02:41:56;16.30;99.90
5792;DHT22;2922;53.482;10.006;2023-08-06T02:44:21;16.30;99.90
5792;DHT22;2922;53.482;10.006;2023-08-06T02:46:47;16.30;99.90
5792;DHT22;2922;53.482;10.006;2023-08-06T02:49:12;16.30;99.90
5792;DHT22;2922;53.482;10.006;2023-08-06T02:51:38;16.20;99.90
5792;DHT22;2922;53.482;10.006;2023-08-06T02:54:03;16.30;99.90
5792;DHT22;2922;53.482;10.006;2023-08-06T02:56:29;16.20;99.90
5792;DHT22;2922;53.482;10.006;2023-08-06T02:58:55;16.20;99.90
5792;DHT22;2922;53.482;10.006;2023-08-06T03:01:20;16.20;99.90
5792;DHT22;2922;53.482;10.006;2023-08-06T03:03:46;16.10;99.90
5792;DHT22;2922;53.482;10.006;2023-08-06T03:06:11;16.20;99.90
5792;DHT22;2922;53.482;10.006;2023-08-06T03:08:37;16.20;99.90
5792;DHT22;2922;53.482;10.006;2023-08-06T03:11:02;16.20;99.90
5792;DHT22;2922;53.482;10.006;2023-08-06T03:13:28;16.20;99.90
5792;DHT22;2922;53.482;10.006;2023-08-06T03:15:59;16.20;99.90
5792;DHT22;2922;53.482;10.006;2023-08-06T03:18:25;16.20;99.90
5792;DHT22;2922;53.482;10.006;2023-08-06T03:20:53;16.20;99.90
5792;DHT22;2922;53.482;10.006;2023-08-06T03:23:19;16.20;99.90
5792;DHT22;2922;53.482;10.006;2023-08-06T03:25:45;16.20;99.90
5792;DHT22;2922;53.482;10.006;2023-08-06T03:28:11;16.20;99.90
5792;DHT22;2922;53.482;10.006;2023-08-06T03:30:36;16.30;99.90
5792;DHT22;2922;53.482;10.006;2023-08-06T03:33:02;16.20;99.90
5792;DHT22;2922;53.482;10.006;2023-08-06T03:35:27;16.20;99.90
5792;DHT22;2922;53.482;10.006;2023-08-06T03:37:53;16.20;99.90
5792;DHT22;2922;53.482;10.006;2023-08-06T03:40:19;16.20;99.90
5792;DHT22;2922;53.482;10.006;2023-08-06T03:42:44;16.20;99.90
5792;DHT22;2922;53.482;10.006;2023-08-06T03:45:10;16.20;99.90
5792;DHT22;2922;53.482;10.006;2023-08-06T03:47:35;16.20;99.90
5792;DHT22;2922;53.482;10.006;2023-08-06T03:50:01;16.20;99.90
5792;DHT22;2922;53.482;10.006;2023-08-06T03:52:26;16.20;99.90
5792;DHT22;2922;53.482;10.006;2023-08-06T03:54:52;16.20;99.90
5792;DHT22;2922;53.482;10.006;2023-08-06T03:57:18;16.30;99.90
5792;DHT22;2922;53.482;10.006;2023-08-06T03:59:43;16.20;99.90
5792;DHT22;2922;53.482;10.006;2023-08-06T04:02:09;16.20;99.90
5792;DHT22;2922;53.482;10.006;2023-08-06T04:04:34;16.20;99.90
5792;DHT22;2922;53.482;10.006;2023-08-06T04:07:00;16.30;99.90
5792;DHT22;2922;53.482;10.006;2023-08-06T04:09:28;16.20;99.90
5792;DHT22;2922;53.482;10.006;2023-08-06T04:11:53;16.20;99.90
5792;DHT22;2922;53.482;10.006;2023-08-06T04:14:19;16.10;99.90
5792;DHT22;2922;53.482;10.006;2023-08-06T04:16:45;16.10;99.90
5792;DHT22;2922;53.482;10.006;2023-08-06T04:19:10;16.10;99.90
5792;DHT22;2922;53.482;10.006;2023-08-06T04:21:36;16.20;99.90
5792;DHT22;2922;53.482;10.006;2023-08-06T04:24:02;16.20;99.90
5792;DHT22;2922;53.482;10.006;2023-08-06T04:26:27;16.10;99.90
5792;DHT22;2922;53.482;10.006;2023-08-06T04:28:53;16.20;99.90
5792;DHT22;2922;53.482;10.006;2023-08-06T04:31:18;16.10;99.90
5792;DHT22;2922;53.482;10.006;2023-08-06T04:33:44;16.20;99.90
5792;DHT22;2922;53.482;10.006;2023-08-06T04:36:09;16.10;99.90
5792;DHT22;2922;53.482;10.006;2023-08-06T04:38:35;16.10;99.90
5792;DHT22;2922;53.482;10.006;2023-08-06T04:41:02;16.10;99.90
5792;DHT22;2922;53.482;10.006;2023-08-06T04:43:28;16.20;99.90
5792;DHT22;2922;53.482;10.006;2023-08-06T04:45:55;16.10;99.90
5792;DHT22;2922;53.482;10.006;2023-08-06T04:48:22;16.20;99.90
5792;DHT22;2922;53.482;10.006;2023-08-06T04:50:49;16.10;99.90
5792;DHT22;2922;53.482;10.006;2023-08-06T04:53:15;16.10;99.90
5792;DHT22;2922;53.482;10.006;2023-08-06T04:55:41;16.10;99.90
5792;DHT22;2922;53.482;10.006;2023-08-06T04:58:09;16.10;99.90
5792;DHT22;2922;53.482;10.006;2023-08-06T05:00:34;16.10;99.90
5792;DHT22;2922;53.482;10.006;2023-08-06T05:03:00;16.20;99.90
5792;DHT22;2922;53.482;10.006;2023-08-06T05:05:27;16.10;99.90
5792;DHT22;2922;53.482;10.006;2023-08-06T05:07:54;16.10;99.90
5792;DHT22;2922;53.482;10.006;2023-08-06T05:10:20;16.10;99.90
5792;DHT22;2922;53.482;10.006;2023-08-06T05:12:45;16.10;99.90
5792;DHT22;2922;53.482;10.006;2023-08-06T05:15:11;16.20;99.90
5792;DHT22;2922;53.482;10.006;2023-08-06T05:17:37;16.10;99.90
5792;DHT22;2922;53.482;10.006;2023-08-06T05:20:02;16.10;99.90
5792;DHT22;2922;53.482;10.006;2023-08-06T05:22:28;16.10;99.90
5792;DHT22;2922;53.482;10.006;2023-08-06T05:24:54;16.10;99.90
5792;DHT22;2922;53.482;10.006;2023-08-06T05:27:19;16.10;99.90
5792;DHT22;2922;53.482;10.006;2023-08-06T05:29:45;16.10;99.90
5792;DHT22;2922;53.482;10.006;2023-08-06T05:32:11;16.10;99.90
5792;DHT22;2922;53.482;10.006;2023-08-06T05:34:37;16.10;99.90
5792;DHT22;2922;53.482;10.006;2023-08-06T05:37:03;16.10;99.90
5792;DHT22;2922;53.482;10.006;2023-08-06T05:39:29;16.10;99.90
5792;DHT22;2922;53.482;10.006;2023-08-06T05:41:54;16.10;99.90
5792;DHT22;2922;53.482;10.006;2023-08-06T05:44:21;16.20;99.90
5792;DHT22;2922;53.482;10.006;2023-08-06T05:46:46;16.20;99.90
5792;DHT22;2922;53.482;10.006;2023-08-06T05:49:12;16.20;99.90
5792;DHT22;2922;53.482;10.006;2023-08-06T05:51:39;16.20;99.90
5792;DHT22;2922;53.482;10.006;2023-08-06T05:54:05;16.20;99.90
5792;DHT22;2922;53.482;10.006;2023-08-06T05:56:30;16.20;99.90
5792;DHT22;2922;53.482;10.006;2023-08-06T05:58:56;16.20;99.90
5792;DHT22;2922;53.482;10.006;2023-08-06T06:01:21;16.20;99.90
5792;DHT22;2922;53.482;10.006;2023-08-06T06:03:47;16.20;99.90
5792;DHT22;2922;53.482;10.006;2023-08-06T06:06:12;16.20;99.90
5792;DHT22;2922;53.482;10.006;2023-08-06T06:08:38;16.20;99.90
5792;DHT22;2922;53.482;10.006;2023-08-06T06:11:03;16.30;99.90
5792;DHT22;2922;53.482;10.006;2023-08-06T06:13:29;16.30;99.90
5792;DHT22;2922;53.482;10.006;2023-08-06T06:15:55;16.30;99.90
5792;DHT22;2922;53.482;10.006;2023-08-06T06:18:21;16.30;99.90
5792;DHT22;2922;53.482;10.006;2023-08-06T06:20:47;16.30;99.90
5792;DHT22;2922;53.482;10.006;2023-08-06T06:23:12;16.40;99.90
5792;DHT22;2922;53.482;10.006;2023-08-06T06:25:42;16.40;99.90
5792;DHT22;2922;53.482;10.006;2023-08-06T06:28:09;16.40;99.90
5792;DHT22;2922;53.482;10.006;2023-08-06T06:30:34;16.40;99.90
5792;DHT22;2922;53.482;10.006;2023-08-06T06:33:00;16.50;99.90
5792;DHT22;2922;53.482;10.006;2023-08-06T06:35:25;16.60;99.90
5792;DHT22;2922;53.482;10.006;2023-08-06T06:37:51;16.60;99.90
5792;DHT22;2922;53.482;10.006;2023-08-06T06:40:17;16.60;99.90
5792;DHT22;2922;53.482;10.006;2023-08-06T06:42:42;16.70;99.90
5792;DHT22;2922;53.482;10.006;2023-08-06T06:45:09;16.80;99.90
5792;DHT22;2922;53.482;10.006;2023-08-06T06:47:34;16.90;99.90
5792;DHT22;2922;53.482;10.006;2023-08-06T06:50:00;17.00;99.90
5792;DHT22;2922;53.482;10.006;2023-08-06T06:52:25;17.10;99.90
5792;DHT22;2922;53.482;10.006;2023-08-06T06:54:51;17.10;99.90
5792;DHT22;2922;53.482;10.006;2023-08-06T06:57:16;17.10;99.90
5792;DHT22;2922;53.482;10.006;2023-08-06T06:59:42;17.20;99.90
5792;DHT22;2922;53.482;10.006;2023-08-06T07:02:07;17.20;99.90
5792;DHT22;2922;53.482;10.006;2023-08-06T07:04:33;17.30;99.90
5792;DHT22;2922;53.482;10.006;2023-08-06T07:06:59;17.30;99.90
5792;DHT22;2922;53.482;10.006;2023-08-06T07:09:24;17.20;99.90
5792;DHT22;2922;53.482;10.006;2023-08-06T07:11:50;17.30;99.90
5792;DHT22;2922;53.482;10.006;2023-08-06T07:14:16;17.30;99.90
5792;DHT22;2922;53.482;10.006;2023-08-06T07:16:42;17.40;99.90
5792;DHT22;2922;53.482;10.006;2023-08-06T07:19:08;17.50;99.90
5792;DHT22;2922;53.482;10.006;2023-08-06T07:21:33;17.60;99.90
5792;DHT22;2922;53.482;10.006;2023-08-06T07:23:59;17.60;99.90
5792;DHT22;2922;53.482;10.006;2023-08-06T07:26:25;17.60;99.90
5792;DHT22;2922;53.482;10.006;2023-08-06T07:28:50;17.70;99.90
5792;DHT22;2922;53.482;10.006;2023-08-06T07:31:16;17.80;99.90
5792;DHT22;2922;53.482;10.006;2023-08-06T07:33:41;17.80;99.90
5792;DHT22;2922;53.482;10.006;2023-08-06T07:36:08;17.90;99.90
5792;DHT22;2922;53.482;10.006;2023-08-06T07:38:35;18.00;99.90
5792;DHT22;2922;53.482;10.006;2023-08-06T07:41:03;18.10;99.90
5792;DHT22;2922;53.482;10.006;2023-08-06T07:43:29;18.20;99.90
5792;DHT22;2922;53.482;10.006;2023-08-06T07:45:58;18.30;99.90
5792;DHT22;2922;53.482;10.006;2023-08-06T07:48:25;18.20;99.90
5792;DHT22;2922;53.482;10.006;2023-08-06T07:50:54;18.20;99.90
5792;DHT22;2922;53.482;10.006;2023-08-06T07:53:24;18.20;99.90
5792;DHT22;2922;53.482;10.006;2023-08-06T07:55:53;18.30;99.90
5792;DHT22;2922;53.482;10.006;2023-08-06T07:58:23;18.30;99.90
5792;DHT22;2922;53.482;10.006;2023-08-06T08:00:48;18.30;99.90
5792;DHT22;2922;53.482;10.006;2023-08-06T08:03:15;18.40;99.90
5792;DHT22;2922;53.482;10.006;2023-08-06T08:05:42;18.30;99.90
5792;DHT22;2922;53.482;10.006;2023-08-06T08:08:08;18.30;99.90
5792;DHT22;2922;53.482;10.006;2023-08-06T08:10:34;18.30;99.90
5792;DHT22;2922;53.482;10.006;2023-08-06T08:13:01;18.40;99.90
5792;DHT22;2922;53.482;10.006;2023-08-06T08:15:28;18.30;99.90
5792;DHT22;2922;53.482;10.006;2023-08-06T08:17:54;18.40;99.90
5792;DHT22;2922;53.482;10.006;2023-08-06T08:20:20;18.30;99.90
5792;DHT22;2922;53.482;10.006;2023-08-06T08:22:46;18.30;99.90
5792;DHT22;2922;53.482;10.006;2023-08-06T08:25:12;18.40;99.90
5792;DHT22;2922;53.482;10.006;2023-08-06T08:27:37;18.40;99.90
5792;DHT22;2922;53.482;10.006;2023-08-06T08:30:03;18.50;99.90
5792;DHT22;2922;53.482;10.006;2023-08-06T08:32:29;18.60;99.90
5792;DHT22;2922;53.482;10.006;2023-08-06T08:34:54;18.60;99.90
5792;DHT22;2922;53.482;10.006;2023-08-06T08:37:20;18.70;99.90
5792;DHT22;2922;53.482;10.006;2023-08-06T08:39:45;18.70;99.90
5792;DHT22;2922;53.482;10.006;2023-08-06T08:42:11;18.60;99.90
5792;DHT22;2922;53.482;10.006;2023-08-06T08:44:37;18.80;99.90
5792;DHT22;2922;53.482;10.006;2023-08-06T08:47:06;18.80;99.90
5792;DHT22;2922;53.482;10.006;2023-08-06T08:49:34;18.70;99.90
5792;DHT22;2922;53.482;10.006;2023-08-06T08:52:02;18.80;99.90
5792;DHT22;2922;53.482;10.006;2023-08-06T08:54:28;18.80;99.90
5792;DHT22;2922;53.482;10.006;2023-08-06T08:56:56;18.90;99.90
5792;DHT22;2922;53.482;10.006;2023-08-06T08:59:22;19.00;99.90
5792;DHT22;2922;53.482;10.006;2023-08-06T09:01:48;19.00;99.90
5792;DHT22;2922;53.482;10.006;2023-08-06T09:04:17;19.00;99.90
5792;DHT22;2922;53.482;10.006;2023-08-06T09:06:51;19.10;99.90
5792;DHT22;2922;53.482;10.006;2023-08-06T09:09:26;19.20;99.90
5792;DHT22;2922;53.482;10.006;2023-08-06T09:11:56;19.20;99.90
5792;DHT22;2922;53.482;10.006;2023-08-06T09:14:23;19.30;99.90
5792;DHT22;2922;53.482;10.006;2023-08-06T09:16:49;19.40;99.90
5792;DHT22;2922;53.482;10.006;2023-08-06T09:19:14;19.40;99.90
5792;DHT22;2922;53.482;10.006;2023-08-06T09:21:43;19.50;99.90
5792;DHT22;2922;53.482;10.006;2023-08-06T09:24:12;19.40;99.90
5792;DHT22;2922;53.482;10.006;2023-08-06T09:26:38;19.40;99.90
5792;DHT22;2922;53.482;10.006;2023-08-06T09:29:09;19.40;99.90
5792;DHT22;2922;53.482;10.006;2023-08-06T09:31:47;19.20;99.90
5792;DHT22;2922;53.482;10.006;2023-08-06T09:36:49;19.30;99.90
5792;DHT22;2922;53.482;10.006;2023-08-06T09:39:17;19.30;99.90
5792;DHT22;2922;53.482;10.006;2023-08-06T09:41:44;19.40;99.90
5792;DHT22;2922;53.482;10.006;2023-08-06T09:44:17;19.30;99.90
5792;DHT22;2922;53.482;10.006;2023-08-06T09:46:50;19.40;99.90
5792;DHT22;2922;53.482;10.006;2023-08-06T09:49:19;19.40;99.90
5792;DHT22;2922;53.482;10.006;2023-08-06T09:51:48;19.40;99.90
5792;DHT22;2922;53.482;10.006;2023-08-06T09:54:16;19.50;99.90
5792;DHT22;2922;53.482;10.006;2023-08-06T09:56:43;19.50;99.90
5792;DHT22;2922;53.482;10.006;2023-08-06T09:59:09;19.50;99.90
5792;DHT22;2922;53.482;10.006;2023-08-06T10:01:36;19.50;99.90
5792;DHT22;2922;53.482;10.006;2023-08-06T10:04:04;19.40;99.90
5792;DHT22;2922;53.482;10.006;2023-08-06T10:06:31;19.50;99.90
5792;DHT22;2922;53.482;10.006;2023-08-06T10:08:57;19.60;99.90
5792;DHT22;2922;53.482;10.006;2023-08-06T10:11:24;19.60;99.90
5792;DHT22;2922;53.482;10.006;2023-08-06T10:13:58;19.60;99.90
5792;DHT22;2922;53.482;10.006;2023-08-06T10:16:26;19.70;99.90
5792;DHT22;2922;53.482;10.006;2023-08-06T10:18:53;19.60;99.90
5792;DHT22;2922;53.482;10.006;2023-08-06T10:21:20;19.60;99.90
5792;DHT22;2922;53.482;10.006;2023-08-06T10:23:53;19.50;99.90
5792;DHT22;2922;53.482;10.006;2023-08-06T10:26:19;19.50;99.90
5792;DHT22;2922;53.482;10.006;2023-08-06T10:28:45;19.50;99.90
5792;DHT22;2922;53.482;10.006;2023-08-06T10:31:10;19.50;99.90
5792;DHT22;2922;53.482;10.006;2023-08-06T10:33:46;19.50;99.90
5792;DHT22;2922;53.482;10.006;2023-08-06T10:36:13;19.50;99.90
5792;DHT22;2922;53.482;10.006;2023-08-06T10:38:46;19.50;99.90
5792;DHT22;2922;53.482;10.006;2023-08-06T10:41:23;19.50;99.90
5792;DHT22;2922;53.482;10.006;2023-08-06T10:43:52;19.60;99.90
5792;DHT22;2922;53.482;10.006;2023-08-06T10:46:30;19.50;99.90
5792;DHT22;2922;53.482;10.006;2023-08-06T10:48:55;19.60;99.90
5792;DHT22;2922;53.482;10.006;2023-08-06T10:51:21;19.50;99.90
5792;DHT22;2922;53.482;10.006;2023-08-06T10:53:49;19.60;99.90
5792;DHT22;2922;53.482;10.006;2023-08-06T10:56:15;19.50;99.90
5792;DHT22;2922;53.482;10.006;2023-08-06T10:58:42;19.40;99.90
5792;DHT22;2922;53.482;10.006;2023-08-06T11:01:09;19.30;99.90
5792;DHT22;2922;53.482;10.006;2023-08-06T11:03:34;19.30;99.90
5792;DHT22;2922;53.482;10.006;2023-08-06T11:06:00;19.30;99.90
5792;DHT22;2922;53.482;10.006;2023-08-06T11:08:27;19.20;99.90
5792;DHT22;2922;53.482;10.006;2023-08-06T11:10:53;19.20;99.90
5792;DHT22;2922;53.482;10.006;2023-08-06T11:13:20;19.20;99.90
5792;DHT22;2922;53.482;10.006;2023-08-06T11:15:45;19.40;99.90
5792;DHT22;2922;53.482;10.006;2023-08-06T11:18:11;19.40;99.90
5792;DHT22;2922;53.482;10.006;2023-08-06T11:20:37;19.40;99.90
5792;DHT22;2922;53.482;10.006;2023-08-06T11:23:03;19.40;99.90
5792;DHT22;2922;53.482;10.006;2023-08-06T11:25:29;19.50;99.90
5792;DHT22;2922;53.482;10.006;2023-08-06T11:27:55;19.30;99.90
5792;DHT22;2922;53.482;10.006;2023-08-06T11:30:21;19.40;99.90
5792;DHT22;2922;53.482;10.006;2023-08-06T11:32:47;19.40;99.90
5792;DHT22;2922;53.482;10.006;2023-08-06T11:35:14;19.40;99.90
5792;DHT22;2922;53.482;10.006;2023-08-06T11:37:43;19.40;99.90
5792;DHT22;2922;53.482;10.006;2023-08-06T11:40:09;19.50;99.90
5792;DHT22;2922;53.482;10.006;2023-08-06T11:42:36;19.50;99.90
5792;DHT22;2922;53.482;10.006;2023-08-06T11:45:03;19.50;99.90
5792;DHT22;2922;53.482;10.006;2023-08-06T11:47:29;19.50;99.90
5792;DHT22;2922;53.482;10.006;2023-08-06T11:49:55;19.40;99.90
5792;DHT22;2922;53.482;10.006;2023-08-06T11:52:22;19.30;99.90
5792;DHT22;2922;53.482;10.006;2023-08-06T11:55:05;19.30;99.90
5792;DHT22;2922;53.482;10.006;2023-08-06T11:57:36;19.30;99.90
5792;DHT22;2922;53.482;10.006;2023-08-06T12:00:13;19.30;99.90
5792;DHT22;2922;53.482;10.006;2023-08-06T12:02:43;19.20;99.90
5792;DHT22;2922;53.482;10.006;2023-08-06T12:05:19;19.20;99.90
5792;DHT22;2922;53.482;10.006;2023-08-06T12:07:54;19.20;99.90
5792;DHT22;2922;53.482;10.006;2023-08-06T12:10:26;19.30;99.90
5792;DHT22;2922;53.482;10.006;2023-08-06T12:12:52;19.40;99.90
5792;DHT22;2922;53.482;10.006;2023-08-06T12:15:18;19.50;99.90
5792;DHT22;2922;53.482;10.006;2023-08-06T12:17:43;19.40;99.90
5792;DHT22;2922;53.482;10.006;2023-08-06T12:20:10;19.50;99.90
5792;DHT22;2922;53.482;10.006;2023-08-06T12:22:36;19.60;99.90
5792;DHT22;2922;53.482;10.006;2023-08-06T12:25:03;19.60;99.90
5792;DHT22;2922;53.482;10.006;2023-08-06T18:41:56;18.30;99.90
5792;DHT22;2922;53.482;10.006;2023-08-06T18:44:22;18.20;99.90
5792;DHT22;2922;53.482;10.006;2023-08-06T18:46:47;18.20;99.90
5792;DHT22;2922;53.482;10.006;2023-08-06T18:49:13;18.20;99.90
5792;DHT22;2922;53.482;10.006;2023-08-06T18:51:40;18.20;99.90
5792;DHT22;2922;53.482;10.006;2023-08-06T18:54:05;18.20;99.90
5792;DHT22;2922;53.482;10.006;2023-08-06T18:56:31;18.10;99.90
5792;DHT22;2922;53.482;10.006;2023-08-06T18:58:56;18.10;99.90
5792;DHT22;2922;53.482;10.006;2023-08-06T19:01:22;18.10;99.90
5792;DHT22;2922;53.482;10.006;2023-08-06T19:03:48;18.10;99.90
5792;DHT22;2922;53.482;10.006;2023-08-06T19:06:13;18.10;99.90
5792;DHT22;2922;53.482;10.006;2023-08-06T19:08:39;18.00;99.90
5792;DHT22;2922;53.482;10.006;2023-08-06T19:11:05;18.00;99.90
5792;DHT22;2922;53.482;10.006;2023-08-06T19:13:30;18.00;99.90
5792;DHT22;2922;53.482;10.006;2023-08-06T19:15:56;18.00;99.90
5792;DHT22;2922;53.482;10.006;2023-08-06T19:18:21;17.90;99.90
5792;DHT22;2922;53.482;10.006;2023-08-06T19:20:47;17.90;99.90
5792;DHT22;2922;53.482;10.006;2023-08-06T19:23:15;17.90;99.90
5792;DHT22;2922;53.482;10.006;2023-08-06T19:25:45;17.90;99.90
5792;DHT22;2922;53.482;10.006;2023-08-06T19:28:14;17.80;99.90
5792;DHT22;2922;53.482;10.006;2023-08-06T19:30:42;17.80;99.90
5792;DHT22;2922;53.482;10.006;2023-08-06T19:33:09;17.70;99.90
5792;DHT22;2922;53.482;10.006;2023-08-06T19:35:52;17.70;99.90
5792;DHT22;2922;53.482;10.006;2023-08-06T19:38:20;17.70;99.90
5792;DHT22;2922;53.482;10.006;2023-08-06T19:40:46;17.70;99.90
5792;DHT22;2922;53.482;10.006;2023-08-06T19:43:12;17.70;99.90
5792;DHT22;2922;53.482;10.006;2023-08-06T19:45:38;17.60;99.90
5792;DHT22;2922;53.482;10.006;2023-08-06T19:48:06;17.60;99.90
5792;DHT22;2922;53.482;10.006;2023-08-06T19:50:32;17.60;99.90
5792;DHT22;2922;53.482;10.006;2023-08-06T19:52:58;17.60;99.90
5792;DHT22;2922;53.482;10.006;2023-08-06T19:55:24;17.60;99.90
5792;DHT22;2922;53.482;10.006;2023-08-06T19:57:50;17.60;99.90
5792;DHT22;2922;53.482;10.006;2023-08-06T20:00:15;17.60;99.90
5792;DHT22;2922;53.482;10.006;2023-08-06T20:02:42;17.60;99.90
5792;DHT22;2922;53.482;10.006;2023-08-06T20:05:08;17.60;99.90
5792;DHT22;2922;53.482;10.006;2023-08-06T20:07:33;17.60;99.90
5792;DHT22;2922;53.482;10.006;2023-08-06T20:09:59;17.60;99.90
5792;DHT22;2922;53.482;10.006;2023-08-06T20:12:24;17.60;99.90
5792;DHT22;2922;53.482;10.006;2023-08-06T20:14:50;17.60;99.90
5792;DHT22;2922;53.482;10.006;2023-08-06T20:17:15;17.50;99.90
5792;DHT22;2922;53.482;10.006;2023-08-06T20:19:41;17.50;99.90
5792;DHT22;2922;53.482;10.006;2023-08-06T20:22:07;17.50;99.90
5792;DHT22;2922;53.482;10.006;2023-08-06T20:24:32;17.50;99.90
5792;DHT22;2922;53.482;10.006;2023-08-06T20:26:58;17.50;99.90
5792;DHT22;2922;53.482;10.006;2023-08-06T20:29:25;17.40;99.90
5792;DHT22;2922;53.482;10.006;2023-08-06T20:31:51;17.40;99.90
5792;DHT22;2922;53.482;10.006;2023-08-06T20:34:17;17.40;99.90
5792;DHT22;2922;53.482;10.006;2023-08-06T20:36:42;17.40;99.90
5792;DHT22;2922;53.482;10.006;2023-08-06T20:39:08;17.40;99.90
5792;DHT22;2922;53.482;10.006;2023-08-06T20:41:33;17.30;99.90
5792;DHT22;2922;53.482;10.006;2023-08-06T20:43:59;17.30;99.90
5792;DHT22;2922;53.482;10.006;2023-08-06T20:46:24;17.30;99.90
5792;DHT22;2922;53.482;10.006;2023-08-06T20:48:50;17.30;99.90
5792;DHT22;2922;53.482;10.006;2023-08-06T20:51:15;17.30;99.90
5792;DHT22;2922;53.482;10.006;2023-08-06T20:53:41;17.30;99.90
5792;DHT22;2922;53.482;10.006;2023-08-06T20:56:07;17.30;99.90
5792;DHT22;2922;53.482;10.006;2023-08-06T20:58:32;17.30;99.90
5792;DHT22;2922;53.482;10.006;2023-08-06T21:00:59;17.30;99.90
5792;DHT22;2922;53.482;10.006;2023-08-06T21:03:26;17.30;99.90
5792;DHT22;2922;53.482;10.006;2023-08-06T21:05:59;17.20;99.90
5792;DHT22;2922;53.482;10.006;2023-08-06T21:08:25;17.30;99.90
5792;DHT22;2922;53.482;10.006;2023-08-06T21:10:51;17.20;99.90
5792;DHT22;2922;53.482;10.006;2023-08-06T21:13:17;17.20;99.90
5792;DHT22;2922;53.482;10.006;2023-08-06T21:15:42;17.20;99.90
5792;DHT22;2922;53.482;10.006;2023-08-06T21:18:08;17.20;99.90
5792;DHT22;2922;53.482;10.006;2023-08-06T21:20:34;17.20;99.90
5792;DHT22;2922;53.482;10.006;2023-08-06T21:23:00;17.20;99.90
5792;DHT22;2922;53.482;10.006;2023-08-06T21:25:25;17.10;99.90
5792;DHT22;2922;53.482;10.006;2023-08-06T21:27:51;17.10;99.90
5792;DHT22;2922;53.482;10.006;2023-08-06T21:30:16;17.10;99.90
5792;DHT22;2922;53.482;10.006;2023-08-06T21:32:42;17.00;99.90
5792;DHT22;2922;53.482;10.006;2023-08-06T21:35:08;17.00;99.90
5792;DHT22;2922;53.482;10.006;2023-08-06T21:37:33;17.00;99.90
5792;DHT22;2922;53.482;10.006;2023-08-06T21:39:59;16.90;99.90
5792;DHT22;2922;53.482;10.006;2023-08-06T21:42:26;16.90;99.90
5792;DHT22;2922;53.482;10.006;2023-08-06T21:44:51;16.90;99.90
5792;DHT22;2922;53.482;10.006;2023-08-06T21:47:17;16.90;99.90
5792;DHT22;2922;53.482;10.006;2023-08-06T21:49:42;16.90;99.90
5792;DHT22;2922;53.482;10.006;2023-08-06T21:52:08;16.90;99.90
5792;DHT22;2922;53.482;10.006;2023-08-06T21:54:34;16.90;99.90
5792;DHT22;2922;53.482;10.006;2023-08-06T21:56:59;16.90;99.90
5792;DHT22;2922;53.482;10.006;2023-08-06T21:59:25;16.90;99.90
5792;DHT22;2922;53.482;10.006;2023-08-06T22:01:50;16.90;99.90
5792;DHT22;2922;53.482;10.006;2023-08-06T22:04:16;16.80;99.90
5792;DHT22;2922;53.482;10.006;2023-08-06T22:06:42;16.80;99.90